createdAt,value
2022-10-05T00:02:41.486Z,2.13
2022-10-05T00:05:34.244Z,2.05
2022-10-05T00:08:25.142Z,2.03
2022-10-05T00:11:13.987Z,2.00
2022-10-05T00:14:07.339Z,2.03
2022-10-05T00:16:56.874Z,1.90
2022-10-05T00:19:46.563Z,2.05
2022-10-05T00:22:35.314Z,2.13
2022-10-05T00:25:23.638Z,2.03
2022-10-05T00:28:27.948Z,2.03
2022-10-05T00:31:25.192Z,1.63
2022-10-05T00:34:13.474Z,2.05
2022-10-05T00:37:01.456Z,1.90
2022-10-05T00:39:49.630Z,2.35
2022-10-05T00:43:07.464Z,2.08
2022-10-05T00:46:07.689Z,2.30
2022-10-05T00:49:01.977Z,2.10
2022-10-05T00:52:22.252Z,1.95
2022-10-05T00:55:30.312Z,2.33
2022-10-05T00:58:35.307Z,2.08
2022-10-05T01:01:26.036Z,2.30
2022-10-05T01:04:21.083Z,2.58
2022-10-05T01:07:39.983Z,2.30
2022-10-05T01:11:04.100Z,1.83
2022-10-05T01:14:16.948Z,2.05
2022-10-05T01:17:04.780Z,1.80
2022-10-05T01:20:11.483Z,2.20
2022-10-05T01:23:11.709Z,2.40
2022-10-05T01:26:24.936Z,2.13
2022-10-05T01:29:31.290Z,2.10
2022-10-05T01:32:31.244Z,3.47
2022-10-05T01:35:39.002Z,2.00
2022-10-05T01:38:52.725Z,1.80
2022-10-05T01:42:06.632Z,2.67
2022-10-05T01:45:14.179Z,1.75
2022-10-05T01:48:22.524Z,2.10
2022-10-05T01:51:31.417Z,2.00
2022-10-05T01:54:40.204Z,2.03
2022-10-05T01:57:46.641Z,2.00
2022-10-05T02:00:54.853Z,2.42
2022-10-05T02:04:18.678Z,1.83
2022-10-05T02:07:35.143Z,2.15
2022-10-05T02:10:32.857Z,1.98
2022-10-05T02:13:58.642Z,2.28
2022-10-05T02:16:49.529Z,2.30
2022-10-05T02:19:48.814Z,2.00
2022-10-05T02:22:45.981Z,2.70
2022-10-05T02:25:38.984Z,1.98
2022-10-05T02:28:47.731Z,2.30
2022-10-05T02:31:45.225Z,2.30
2022-10-05T02:34:38.857Z,2.30
2022-10-05T02:37:56.375Z,2.25
2022-10-05T02:41:02.868Z,1.95
2022-10-05T02:44:05.749Z,2.15
2022-10-05T02:47:19.784Z,2.25
2022-10-05T02:50:46.909Z,1.77
2022-10-05T02:53:44.723Z,1.73
2022-10-05T02:56:52.545Z,2.30
2022-10-05T02:59:48.058Z,2.35
2022-10-05T03:02:44.561Z,2.35
2022-10-05T03:05:40.392Z,2.08
2022-10-05T03:08:35.193Z,2.17
2022-10-05T03:11:46.926Z,2.00
2022-10-05T03:15:01.964Z,1.70
2022-10-05T03:18:08.802Z,1.90
2022-10-05T03:21:15.627Z,1.80
2022-10-05T03:24:45.009Z,2.42
2022-10-05T03:27:42.325Z,1.73
2022-10-05T03:30:37.501Z,1.70
2022-10-05T03:33:29.037Z,1.85
2022-10-05T03:36:37.533Z,2.03
2022-10-05T03:39:42.057Z,1.70
2022-10-05T03:42:37.446Z,2.20
2022-10-05T03:45:30.419Z,1.80
2022-10-05T03:48:33.743Z,2.20
2022-10-05T03:51:51.669Z,1.92
2022-10-05T03:55:03.492Z,1.77
2022-10-05T03:57:56.726Z,2.10
2022-10-05T04:00:52.355Z,2.00
2022-10-05T04:03:48.367Z,2.25
2022-10-05T04:06:42.755Z,1.98
2022-10-05T04:09:37.058Z,2.50
2022-10-05T04:12:49.561Z,2.83
2022-10-05T04:15:46.333Z,2.08
2022-10-05T04:18:43.837Z,1.98
2022-10-05T04:21:52.861Z,3.08
2022-10-05T04:25:00.778Z,2.60
2022-10-05T04:28:01.441Z,1.90
2022-10-05T04:30:52.424Z,2.00
2022-10-05T04:33:41.007Z,1.88
2022-10-05T04:36:39.070Z,2.00
2022-10-05T04:39:54.164Z,2.00
2022-10-05T04:42:51.941Z,3.58
2022-10-05T04:45:49.967Z,1.90
2022-10-05T04:49:08.727Z,2.08
2022-10-05T04:52:22.708Z,2.00
2022-10-05T04:55:23.225Z,2.22
2022-10-05T04:58:41.531Z,2.28
2022-10-05T05:02:01.683Z,3.20
2022-10-05T05:05:01.588Z,2.40
2022-10-05T05:08:17.303Z,2.30
2022-10-05T05:12:04.015Z,1.67
2022-10-05T05:15:13.612Z,2.00
2022-10-05T05:21:28.940Z,2.10
2022-10-05T05:24:47.298Z,2.15
2022-10-05T05:27:51.202Z,2.03
2022-10-05T05:30:50.545Z,2.22
2022-10-05T05:33:59.151Z,2.30
2022-10-05T05:37:04.580Z,1.85
2022-10-05T05:39:59.424Z,2.40
2022-10-05T05:43:01.935Z,2.42
2022-10-05T05:46:07.339Z,2.10
2022-10-05T05:48:58.061Z,2.88
2022-10-05T05:51:55.623Z,1.90
2022-10-05T05:54:57.887Z,1.83
2022-10-05T05:58:04.483Z,2.30
2022-10-05T06:00:52.594Z,2.40
2022-10-05T06:03:47.367Z,1.58
2022-10-05T06:06:41.983Z,2.20
2022-10-05T06:10:30.024Z,2.08
2022-10-05T06:13:30.705Z,2.55
2022-10-05T06:16:36.872Z,1.90
2022-10-05T06:19:28.294Z,1.85
2022-10-05T06:22:47.902Z,1.85
2022-10-05T06:26:08.264Z,1.50
2022-10-05T06:29:04.045Z,2.08
2022-10-05T06:32:48.848Z,2.00
2022-10-05T06:35:46.284Z,2.17
2022-10-05T06:39:08.911Z,1.85
2022-10-05T06:42:20.158Z,1.70
2022-10-05T06:46:05.579Z,1.60
2022-10-05T06:49:33.881Z,1.70
2022-10-05T06:53:29.302Z,1.55
2022-10-05T06:56:26.668Z,1.23
2022-10-05T06:59:31.722Z,1.50
2022-10-05T07:02:32.673Z,2.45
2022-10-05T07:05:47.918Z,1.55
2022-10-05T07:08:35.831Z,1.58
2022-10-05T07:11:58.509Z,1.83
2022-10-05T07:14:56.049Z,1.23
2022-10-05T07:17:49.442Z,1.77
2022-10-05T07:21:12.896Z,1.23
2022-10-05T07:24:23.415Z,1.40
2022-10-05T07:27:21.294Z,1.40
2022-10-05T07:30:14.845Z,1.77
2022-10-05T07:33:33.681Z,1.90
2022-10-05T07:37:00.606Z,2.00
2022-10-05T07:43:35.933Z,1.95
2022-10-05T07:46:54.330Z,2.10
2022-10-05T07:49:49.952Z,2.08
2022-10-05T07:52:41.466Z,2.10
2022-10-05T07:55:44.438Z,2.00
2022-10-05T07:58:43.245Z,2.00
2022-10-05T08:01:36.799Z,2.33
2022-10-05T08:04:32.069Z,1.80
2022-10-05T08:07:20.411Z,1.77
2022-10-05T08:10:14.499Z,1.80
2022-10-05T08:13:05.236Z,2.03
2022-10-05T08:16:00.451Z,1.60
2022-10-05T08:19:03.177Z,1.65
2022-10-05T08:22:10.054Z,1.50
2022-10-05T08:25:04.327Z,1.50
2022-10-05T08:28:04.024Z,2.30
2022-10-05T08:31:15.329Z,2.28
2022-10-05T08:34:31.117Z,2.20
2022-10-05T08:37:23.926Z,2.78
2022-10-05T08:40:37.531Z,2.03
2022-10-05T08:43:45.012Z,2.13
2022-10-05T08:47:10.678Z,2.22
2022-10-05T08:54:16.988Z,2.03
2022-10-05T08:57:35.932Z,1.80
2022-10-05T09:00:26.039Z,2.22
2022-10-05T09:03:36.590Z,2.00
2022-10-05T09:06:33.635Z,1.35
2022-10-05T09:09:40.737Z,1.65
2022-10-05T09:12:47.968Z,1.48
2022-10-05T09:16:06.387Z,1.63
2022-10-05T09:19:19.109Z,1.38
2022-10-05T09:22:34.115Z,1.42
2022-10-05T09:25:41.924Z,1.10
2022-10-05T09:29:08.435Z,1.25
2022-10-05T09:32:35.485Z,1.20
2022-10-05T09:35:38.738Z,1.60
2022-10-05T09:38:32.463Z,1.40
2022-10-05T09:41:48.305Z,1.60
2022-10-05T09:45:21.330Z,1.52
2022-10-05T09:48:43.272Z,1.20
2022-10-05T09:52:00.523Z,1.63
2022-10-05T09:57:59.853Z,1.15
2022-10-05T10:01:29.095Z,1.60
2022-10-05T10:04:37.562Z,1.33
2022-10-05T10:07:40.545Z,1.20
2022-10-05T10:10:48.606Z,1.40
2022-10-05T10:13:45.812Z,1.15
2022-10-05T10:17:03.124Z,1.40
2022-10-05T10:19:58.801Z,1.20
2022-10-05T10:23:09.978Z,1.57
2022-10-05T10:26:13.935Z,1.95
2022-10-05T10:29:22.078Z,1.83
2022-10-05T10:32:29.167Z,0.98
2022-10-05T10:35:37.103Z,1.00
2022-10-05T10:38:47.291Z,1.10
2022-10-05T10:41:54.419Z,1.48
2022-10-05T10:45:01.007Z,1.20
2022-10-05T10:47:51.865Z,1.30
2022-10-05T10:50:52.455Z,1.30
2022-10-05T10:53:54.067Z,1.33
2022-10-05T10:57:26.813Z,1.42
2022-10-05T11:00:37.891Z,1.63
2022-10-05T11:03:39.164Z,1.50
2022-10-05T11:06:44.912Z,1.40
2022-10-05T11:10:30.158Z,1.17
2022-10-05T11:13:41.975Z,1.15
2022-10-05T11:16:44.875Z,1.15
2022-10-05T11:19:40.107Z,1.10
2022-10-05T11:22:40.228Z,1.13
2022-10-05T11:25:54.483Z,1.35
2022-10-05T11:29:01.895Z,1.10
2022-10-05T11:32:14.322Z,1.70
2022-10-05T11:35:27.552Z,1.50
2022-10-05T11:38:50.591Z,1.45
2022-10-05T11:41:53.764Z,1.50
2022-10-05T11:45:07.772Z,1.40
2022-10-05T11:48:20.589Z,1.23
2022-10-05T11:51:46.508Z,0.93
2022-10-05T11:55:06.053Z,1.00
2022-10-05T11:57:51.581Z,0.90
2022-10-05T12:00:44.567Z,1.00
2022-10-05T12:03:41.664Z,1.73
2022-10-05T12:06:35.854Z,1.30
2022-10-05T12:09:36.896Z,1.40
2022-10-05T12:12:29.654Z,1.20
2022-10-05T12:15:43.438Z,1.10
2022-10-05T12:18:31.372Z,1.10
2022-10-05T12:21:34.518Z,1.20
2022-10-05T12:24:38.003Z,1.10
2022-10-05T12:27:31.406Z,1.30
2022-10-05T12:30:50.262Z,1.10
2022-10-05T12:34:04.523Z,1.20
2022-10-05T12:37:04.687Z,1.60
2022-10-05T12:40:02.647Z,1.48
2022-10-05T12:42:59.136Z,1.20
2022-10-05T12:46:01.353Z,1.10
2022-10-05T12:49:22.442Z,1.00
2022-10-05T12:52:43.470Z,1.10
2022-10-05T12:56:04.275Z,1.00
2022-10-05T12:58:56.136Z,0.82
2022-10-05T13:01:56.675Z,1.10
2022-10-05T13:05:12.926Z,1.00
2022-10-05T13:08:24.484Z,1.08
2022-10-05T13:11:36.380Z,1.20
2022-10-05T13:14:39.520Z,0.88
2022-10-05T13:17:58.946Z,0.82
2022-10-05T13:21:19.505Z,1.00
2022-10-05T13:24:19.689Z,1.20
2022-10-05T13:27:13.697Z,1.30
2022-10-05T13:30:17.038Z,1.13
2022-10-05T13:33:15.468Z,1.30
2022-10-05T13:36:18.780Z,1.20
2022-10-05T13:39:46.035Z,1.10
2022-10-05T13:43:00.214Z,1.30
2022-10-05T13:46:26.120Z,1.23
2022-10-05T13:49:22.231Z,0.93
2022-10-05T13:52:28.843Z,1.25
2022-10-05T13:55:50.124Z,1.40
2022-10-05T13:59:03.254Z,1.63
2022-10-05T14:02:05.132Z,1.40
2022-10-05T14:05:21.923Z,1.10
2022-10-05T14:08:17.801Z,1.25
2022-10-05T14:11:40.141Z,1.23
2022-10-05T14:14:30.002Z,1.48
2022-10-05T14:17:37.325Z,1.63
2022-10-05T14:20:31.869Z,1.85
2022-10-05T14:23:28.269Z,1.40
2022-10-05T14:26:25.910Z,1.67
2022-10-05T14:29:14.583Z,1.20
2022-10-05T14:32:11.667Z,1.23
2022-10-05T14:35:15.483Z,1.10
2022-10-05T14:38:18.721Z,1.20
2022-10-05T14:41:20.405Z,1.10
2022-10-05T14:44:14.110Z,1.10
2022-10-05T14:47:21.010Z,1.13
2022-10-05T14:50:29.847Z,1.30
2022-10-05T14:53:21.542Z,1.13
2022-10-05T14:56:35.520Z,1.30
2022-10-05T14:59:26.224Z,1.30
2022-10-05T15:02:45.205Z,1.10
2022-10-05T15:05:45.553Z,1.10
2022-10-05T15:08:39.226Z,1.15
2022-10-05T15:12:05.528Z,0.88
2022-10-05T15:15:06.789Z,1.30
2022-10-05T15:18:00.359Z,1.20
2022-10-05T15:21:14.404Z,1.55
2022-10-05T15:24:17.786Z,1.90
2022-10-05T15:27:30.104Z,1.77
2022-10-05T15:30:18.900Z,1.30
2022-10-05T15:33:27.915Z,1.40
2022-10-05T15:36:22.214Z,1.77
2022-10-05T15:39:11.006Z,1.02
2022-10-05T15:42:18.546Z,1.02
2022-10-05T15:45:38.200Z,1.17
2022-10-05T15:48:43.738Z,1.00
2022-10-05T15:52:02.416Z,1.20
2022-10-05T15:55:23.915Z,0.90
2022-10-05T15:58:35.603Z,1.20
2022-10-05T16:01:35.983Z,1.17
2022-10-05T16:04:39.126Z,1.15
2022-10-05T16:08:02.037Z,1.35
2022-10-05T16:10:49.850Z,1.10
2022-10-05T16:13:52.684Z,1.10
2022-10-05T16:17:17.397Z,1.42
2022-10-05T16:20:21.037Z,1.20
2022-10-05T16:23:32.140Z,1.05
2022-10-05T16:26:32.752Z,1.10
2022-10-05T16:29:33.393Z,1.00
2022-10-05T16:32:27.762Z,1.38
2022-10-05T16:35:26.596Z,1.30
2022-10-05T16:38:34.658Z,1.30
2022-10-05T16:41:41.244Z,1.30
2022-10-05T16:44:44.831Z,1.45
2022-10-05T16:47:35.879Z,1.50
2022-10-05T16:50:28.787Z,1.20
2022-10-05T16:53:25.974Z,1.40
2022-10-05T16:56:19.870Z,1.10
2022-10-05T16:59:25.410Z,1.10
2022-10-05T17:02:25.487Z,1.30
2022-10-05T17:05:41.690Z,1.40
2022-10-05T17:08:49.723Z,1.27
2022-10-05T17:12:36.345Z,1.17
2022-10-05T17:15:53.183Z,1.38
2022-10-05T17:19:19.611Z,1.10
2022-10-05T17:22:29.225Z,1.30
2022-10-05T17:25:49.720Z,1.25
2022-10-05T17:28:57.894Z,1.27
2022-10-05T17:32:09.885Z,1.30
2022-10-05T17:35:04.210Z,1.38
2022-10-05T17:38:31.044Z,0.90
2022-10-05T17:41:22.744Z,1.10
2022-10-05T17:44:16.357Z,1.40
2022-10-05T17:47:08.376Z,1.10
2022-10-05T17:50:18.550Z,0.98
2022-10-05T17:53:54.056Z,0.85
2022-10-05T17:56:47.941Z,1.13
2022-10-05T17:59:55.993Z,1.48
2022-10-05T18:02:43.899Z,1.60
2022-10-05T18:05:31.843Z,1.70
2022-10-05T18:08:28.943Z,1.35
2022-10-05T18:11:29.030Z,1.30
2022-10-05T18:14:23.200Z,1.50
2022-10-05T18:17:13.219Z,1.73
2022-10-05T18:20:26.557Z,1.33
2022-10-05T18:23:23.932Z,1.30
2022-10-05T18:26:59.655Z,1.20
2022-10-05T18:30:16.059Z,1.00
2022-10-05T18:33:24.391Z,1.60
2022-10-05T18:36:37.675Z,1.40
2022-10-05T18:39:56.082Z,1.27
2022-10-05T18:43:10.414Z,1.10
2022-10-05T18:46:41.121Z,1.40
2022-10-05T18:49:58.565Z,1.30
2022-10-05T18:53:09.142Z,1.20
2022-10-05T18:56:16.547Z,1.63
2022-10-05T18:59:25.961Z,1.17
2022-10-05T19:02:48.001Z,1.15
2022-10-05T19:05:58.749Z,1.20
2022-10-05T19:09:20.658Z,0.98
2022-10-05T19:12:55.568Z,1.33
2022-10-05T19:16:34.426Z,1.30
2022-10-05T19:19:51.411Z,1.48
2022-10-05T19:23:23.120Z,1.67
2022-10-05T19:26:23.746Z,1.35
2022-10-05T19:29:53.357Z,1.38
2022-10-05T19:32:59.766Z,1.30
2022-10-05T19:36:21.792Z,1.55
2022-10-05T19:39:21.611Z,1.60
2022-10-05T19:42:44.930Z,1.40
2022-10-05T19:45:39.993Z,1.40
2022-10-05T19:48:43.140Z,1.60
2022-10-05T19:51:49.669Z,1.77
2022-10-05T19:54:42.774Z,1.30
2022-10-05T19:57:32.686Z,1.95
2022-10-05T20:00:49.007Z,1.45
2022-10-05T20:03:38.281Z,1.43
2022-10-05T20:06:27.168Z,1.40
2022-10-05T20:09:21.010Z,1.90
2022-10-05T20:12:11.731Z,1.77
2022-10-05T20:15:37.151Z,1.83
2022-10-05T20:19:08.991Z,1.63
2022-10-05T20:21:59.328Z,1.33
2022-10-05T20:24:52.725Z,1.42
2022-10-05T20:27:41.276Z,1.35
2022-10-05T20:30:31.272Z,1.40
2022-10-05T20:33:19.671Z,1.50
2022-10-05T20:36:08.730Z,1.80
2022-10-05T20:39:18.877Z,1.25
2022-10-05T20:42:09.014Z,1.00
2022-10-05T20:44:58.182Z,1.30
2022-10-05T20:47:47.468Z,1.40
2022-10-05T20:50:35.664Z,1.40
2022-10-05T20:53:26.262Z,1.50
2022-10-05T20:56:14.402Z,1.27
2022-10-05T20:59:02.779Z,1.30
2022-10-05T21:01:51.237Z,1.10
2022-10-05T21:04:41.479Z,1.52
2022-10-05T21:07:31.357Z,1.20
2022-10-05T21:10:19.170Z,1.23
2022-10-05T21:13:07.235Z,1.40
2022-10-05T21:15:56.825Z,1.20
2022-10-05T21:18:47.965Z,1.40
2022-10-05T21:21:37.391Z,1.40
2022-10-05T21:24:25.558Z,1.70
2022-10-05T21:27:13.394Z,1.48
2022-10-05T21:30:01.550Z,2.10
2022-10-05T21:32:51.742Z,1.30
2022-10-05T21:35:39.717Z,1.65
2022-10-05T21:38:29.221Z,1.60
2022-10-05T21:41:18.335Z,1.33
2022-10-05T21:44:06.887Z,1.60
2022-10-05T21:46:57.107Z,1.25
2022-10-05T21:49:45.138Z,1.40
2022-10-05T21:52:35.673Z,1.30
2022-10-05T21:55:23.861Z,1.45
2022-10-05T21:58:14.669Z,1.63
2022-10-05T22:01:03.620Z,1.20
2022-10-05T22:03:52.548Z,1.40
2022-10-05T22:06:40.864Z,1.42
2022-10-05T22:09:30.088Z,1.70
2022-10-05T22:12:20.221Z,1.50
2022-10-05T22:15:09.698Z,1.42
2022-10-05T22:17:59.306Z,1.40
2022-10-05T22:20:48.010Z,1.70
2022-10-05T22:23:41.862Z,1.50
2022-10-05T22:26:30.655Z,1.13
2022-10-05T22:29:20.920Z,1.38
2022-10-05T22:32:10.481Z,1.30
2022-10-05T22:34:58.647Z,1.50
2022-10-05T22:37:46.710Z,1.83
2022-10-05T22:40:36.361Z,1.40
2022-10-05T22:43:27.657Z,1.90
2022-10-05T22:46:16.421Z,1.65
2022-10-05T22:49:04.596Z,2.20
2022-10-05T22:51:53.365Z,1.98
2022-10-05T22:54:41.571Z,1.80
2022-10-05T22:57:38.353Z,1.65
2022-10-05T23:00:40.342Z,1.58
2022-10-05T23:03:35.555Z,1.75
2022-10-05T23:06:27.821Z,1.95
2022-10-05T23:09:16.103Z,1.80
2022-10-05T23:12:04.603Z,2.45
2022-10-05T23:14:52.789Z,1.08
2022-10-05T23:17:41.628Z,1.70
2022-10-05T23:20:31.352Z,2.00
2022-10-05T23:23:19.961Z,2.03
2022-10-05T23:26:10.254Z,1.55
2022-10-05T23:28:58.916Z,2.15
2022-10-05T23:31:47.368Z,1.90
2022-10-05T23:34:36.203Z,1.63
2022-10-05T23:37:27.153Z,1.70
2022-10-05T23:40:17.881Z,2.03
2022-10-05T23:43:07.283Z,2.10
2022-10-05T23:45:59.404Z,1.90
2022-10-05T23:48:49.291Z,1.90
2022-10-05T23:51:38.123Z,1.65
2022-10-05T23:54:26.664Z,1.52
2022-10-05T23:57:19.878Z,2.20
